Time;durP1;ratioP1;P1;durP2;ratioP2;P2;SDS_P1;SDS_P2;PMS_P1;PMS_P2;Temp;Humidity;BMP_temperature;BMP_pressure;BME280_temperature;BME280_humidity;BME280_pressure;Samples;Min_cycle;Max_cycle;Signal;HPM_P1;HPM_P2
2022/11/22 00:02:16;;;;;;;32.67;19.37;;;;;;;-0.53;98.23;100050.22;4976870;28;20192;-70
2022/11/22 00:04:41;;;;;;;31.90;18.50;;;;;;;-0.52;97.69;100049.41;4972378;28;20220;-70
2022/11/22 00:07:07;;;;;;;35.60;20.00;;;;;;;-0.49;97.59;100049.56;4970938;28;20188;-70
2022/11/22 00:09:33;;;;;;;33.60;19.90;;;;;;;-0.56;97.60;100045.03;4970463;28;20220;-71
2022/11/22 00:11:58;;;;;;;33.90;19.70;;;;;;;-0.55;97.34;100045.09;4970932;28;20199;-71
2022/11/22 00:14:24;;;;;;;37.27;20.03;;;;;;;-0.54;96.84;100036.78;4973819;28;20200;-70
2022/11/22 00:16:49;;;;;;;34.33;20.20;;;;;;;-0.50;97.41;100035.28;4970716;28;20221;-70
2022/11/22 00:19:15;;;;;;;35.03;21.03;;;;;;;-0.50;97.27;100047.88;4971005;28;20224;-71
2022/11/22 00:21:40;;;;;;;38.10;20.93;;;;;;;-0.51;97.33;100048.63;4973649;28;20204;-70
2022/11/22 00:24:06;;;;;;;36.90;20.27;;;;;;;-0.56;97.36;100055.94;4971496;28;20184;-70
2022/11/22 00:26:31;;;;;;;33.73;21.00;;;;;;;-0.62;97.42;100057.28;4975551;28;20214;-70
2022/11/22 00:28:57;;;;;;;38.30;22.03;;;;;;;-0.60;97.50;100058.22;4976168;28;20650;-70
2022/11/22 00:31:22;;;;;;;41.43;22.00;;;;;;;-0.59;97.25;100065.00;4977443;28;20203;-70
2022/11/22 00:33:48;;;;;;;36.77;21.03;;;;;;;-0.59;97.98;100062.47;4977375;28;20261;-70
2022/11/22 00:36:15;;;;;;;39.90;21.87;;;;;;;-0.61;97.39;100053.97;4976384;28;20287;-70
2022/11/22 00:38:41;;;;;;;43.93;22.20;;;;;;;-0.59;97.57;100057.47;4974820;28;20188;-70
2022/11/22 00:41:07;;;;;;;37.03;21.00;;;;;;;-0.64;97.80;100064.75;4979976;28;20204;-70
2022/11/22 00:43:32;;;;;;;41.83;22.60;;;;;;;-0.64;97.75;100062.22;4973479;28;20192;-70
2022/11/22 00:45:58;;;;;;;39.60;21.93;;;;;;;-0.66;97.89;100056.28;4974778;28;20298;-70
2022/11/22 00:48:24;;;;;;;40.17;22.57;;;;;;;-0.63;97.55;100048.03;4977393;28;20270;-70
2022/11/22 00:50:49;;;;;;;39.27;22.50;;;;;;;-0.61;97.49;100048.97;4969872;28;20323;-70
2022/11/22 00:53:15;;;;;;;41.50;22.03;;;;;;;-0.62;97.52;100055.66;4969793;28;20642;-70
2022/11/22 00:55:40;;;;;;;41.23;22.37;;;;;;;-0.61;97.94;100046.44;4975926;28;20303;-71
2022/11/22 00:58:05;;;;;;;40.53;22.20;;;;;;;-0.62;97.65;100045.59;4976656;28;20712;-70
2022/11/22 01:00:31;;;;;;;43.47;22.63;;;;;;;-0.65;97.89;100045.44;4970373;28;20192;-69
2022/11/22 01:02:56;;;;;;;42.07;23.40;;;;;;;-0.62;97.69;100040.56;4976540;28;20200;-70
2022/11/22 01:05:22;;;;;;;41.77;22.90;;;;;;;-0.61;97.75;100044.81;4970231;28;20567;-70
2022/11/22 01:07:47;;;;;;;49.17;24.90;;;;;;;-0.61;97.23;100048.97;4973655;28;20320;-70
2022/11/22 01:10:13;;;;;;;43.40;22.73;;;;;;;-0.59;97.63;100050.75;4971622;28;20219;-70
2022/11/22 01:12:38;;;;;;;44.97;23.33;;;;;;;-0.63;97.65;100048.88;4977373;28;20593;-70
2022/11/22 01:15:04;;;;;;;39.53;22.40;;;;;;;-0.61;98.36;100032.25;4975278;28;20282;-71
2022/11/22 01:17:30;;;;;;;43.73;23.77;;;;;;;-0.64;98.43;100036.25;4974263;28;20770;-70
2022/11/22 01:19:55;;;;;;;46.17;24.03;;;;;;;-0.62;98.20;100045.59;4980774;28;20191;-70
2022/11/22 01:22:21;;;;;;;44.47;24.00;;;;;;;-0.61;98.47;100037.28;4974833;28;20192;-70
2022/11/22 01:24:46;;;;;;;47.93;24.20;;;;;;;-0.60;98.75;100028.06;4977741;28;20243;-70
2022/11/22 01:27:14;;;;;;;43.07;22.67;;;;;;;-0.62;98.05;100030.53;4980129;28;20228;-71
2022/11/22 01:29:39;;;;;;;47.67;24.53;;;;;;;-0.60;98.99;100026.41;4978719;28;20193;-70
2022/11/22 01:32:06;;;;;;;45.23;23.47;;;;;;;-0.62;98.94;100015.44;4975928;28;20678;-71
2022/11/22 01:34:31;;;;;;;47.37;24.20;;;;;;;-0.59;98.71;100012.22;4982701;28;20210;-70
2022/11/22 01:36:57;;;;;;;46.30;24.57;;;;;;;-0.60;98.44;100013.84;4973815;28;20220;-70
2022/11/22 01:39:23;;;;;;;44.03;24.07;;;;;;;-0.59;99.04;100013.06;4973476;28;20646;-70
2022/11/22 01:41:48;;;;;;;46.77;23.43;;;;;;;-0.58;99.08;100009.78;4973814;28;20272;-70
2022/11/22 01:44:26;;;;;;;48.13;23.80;;;;;;;-0.57;99.10;100003.97;4976620;28;20197;-71
2022/11/22 01:47:12;;;;;;;44.73;24.10;;;;;;;-0.53;98.74;100002.47;4976499;28;20218;-70
2022/11/22 01:49:46;;;;;;;44.30;24.43;;;;;;;-0.56;98.77;100000.66;4977227;28;20192;-70
2022/11/22 01:52:16;;;;;;;50.93;25.30;;;;;;;-0.54;98.56;100011.63;4981504;28;20222;-69
2022/11/22 01:54:46;;;;;;;45.67;25.10;;;;;;;-0.59;99.00;100025.63;4976543;28;20283;-70
2022/11/22 01:57:16;;;;;;;46.83;23.70;;;;;;;-0.55;99.03;100025.00;4974296;28;20271;-70
2022/11/22 01:59:47;;;;;;;44.17;23.43;;;;;;;-0.58;98.80;100018.97;4973045;28;20180;-70
2022/11/22 02:02:12;;;;;;;51.00;25.33;;;;;;;-0.60;99.19;100008.84;4974760;28;20219;-70
2022/11/22 02:04:40;;;;;;;44.83;23.80;;;;;;;-0.61;99.03;100012.13;4981197;28;20764;-70
2022/11/22 02:07:18;;;;;;;49.13;25.70;;;;;;;-0.62;99.40;100007.91;4973037;28;20685;-70
2022/11/22 02:09:47;;;;;;;50.40;25.33;;;;;;;-0.58;99.49;100003.88;4984068;28;20196;-70
2022/11/22 02:12:14;;;;;;;49.00;24.97;;;;;;;-0.61;99.60;99997.06;4978569;28;20227;-70
2022/11/22 02:14:40;;;;;;;49.63;24.83;;;;;;;-0.59;99.76;99987.09;4974997;28;20204;-70
2022/11/22 02:17:06;;;;;;;44.87;24.50;;;;;;;-0.60;99.24;99987.84;4974873;28;20250;-70
2022/11/22 02:19:43;;;;;;;49.57;24.87;;;;;;;-0.59;99.39;99980.41;4977001;28;20216;-70
2022/11/22 02:22:30;;;;;;;43.77;24.27;;;;;;;-0.58;99.92;99986.28;4974805;28;20180;-70
2022/11/22 02:24:58;;;;;;;48.33;24.53;;;;;;;-0.56;99.03;99984.69;4975505;28;20311;-70
2022/11/22 02:27:24;;;;;;;49.30;25.83;;;;;;;-0.55;99.42;99987.28;4972986;28;20185;-70
2022/11/22 02:29:50;;;;;;;46.50;24.33;;;;;;;-0.54;99.38;99983.16;4976275;28;20239;-70
2022/11/22 02:32:15;;;;;;;46.03;25.10;;;;;;;-0.53;99.53;99973.16;4982981;28;20196;-69
2022/11/22 02:34:43;;;;;;;50.23;24.57;;;;;;;-0.54;99.37;99968.91;4981793;28;20257;-70
2022/11/22 02:37:10;;;;;;;44.70;24.53;;;;;;;-0.51;98.99;99953.13;4982656;28;20239;-70
2022/11/22 02:39:36;;;;;;;46.33;24.40;;;;;;;-0.49;99.39;99959.09;4983295;28;20210;-70
2022/11/22 02:42:01;;;;;;;45.53;24.97;;;;;;;-0.50;99.14;99960.72;4980687;28;20196;-70
2022/11/22 02:44:27;;;;;;;46.33;24.10;;;;;;;-0.52;99.09;99946.38;4973493;28;20326;-70
2022/11/22 02:46:54;;;;;;;47.37;25.90;;;;;;;-0.48;99.68;99953.28;4972499;28;20184;-70
2022/11/22 02:49:22;;;;;;;46.43;24.83;;;;;;;-0.48;98.97;99935.69;4973192;28;20278;-70
2022/11/22 02:51:49;;;;;;;48.27;26.27;;;;;;;-0.49;99.62;99923.91;4972176;28;20188;-70
2022/11/22 02:54:15;;;;;;;45.30;24.57;;;;;;;-0.46;99.48;99924.06;4972063;28;20218;-70
2022/11/22 02:56:40;;;;;;;47.17;25.60;;;;;;;-0.47;99.52;99925.69;4975987;28;20708;-71
2022/11/22 02:59:06;;;;;;;46.10;23.80;;;;;;;-0.45;99.33;99928.28;4971880;28;20276;-70
2022/11/22 03:01:32;;;;;;;50.53;26.07;;;;;;;-0.43;100.00;99935.13;4972942;28;20188;-70
2022/11/22 03:03:57;;;;;;;47.33;26.17;;;;;;;-0.43;99.75;99942.66;4979290;28;20547;-70
2022/11/22 03:06:22;;;;;;;46.33;24.53;;;;;;;-0.46;99.58;99954.22;4974299;28;20212;-70
2022/11/22 03:08:48;;;;;;;46.73;26.23;;;;;;;-0.43;99.71;99939.28;4972784;28;20208;-70
2022/11/22 03:11:14;;;;;;;45.40;23.87;;;;;;;-0.40;99.23;99931.88;4980998;28;20204;-71
2022/11/22 03:13:39;;;;;;;47.23;25.27;;;;;;;-0.37;99.20;99921.94;4978160;28;20200;-70
2022/11/22 03:16:05;;;;;;;46.77;25.17;;;;;;;-0.37;99.48;99909.38;4975227;28;20235;-70
2022/11/22 03:18:35;;;;;;;45.90;24.77;;;;;;;-0.39;99.59;99906.81;4981985;28;20596;-70
2022/11/22 03:21:05;;;;;;;45.93;24.40;;;;;;;-0.36;99.18;99911.13;4981943;28;20322;-70
2022/11/22 03:23:31;;;;;;;44.53;24.17;;;;;;;-0.33;99.13;99903.72;4982378;28;20551;-70
2022/11/22 03:25:56;;;;;;;45.90;24.07;;;;;;;-0.35;99.76;99912.84;4977388;28;20295;-70
2022/11/22 03:28:22;;;;;;;43.30;24.30;;;;;;;-0.34;99.10;99909.53;4977060;28;20189;-70
2022/11/22 03:30:48;;;;;;;41.17;22.30;;;;;;;-0.35;99.69;99915.34;4979023;28;20196;-70
2022/11/22 03:33:13;;;;;;;46.77;24.67;;;;;;;-0.31;99.03;99915.56;4984387;28;20300;-70
2022/11/22 03:35:38;;;;;;;42.43;22.87;;;;;;;-0.31;99.12;99909.69;4973867;28;20291;-70
2022/11/22 03:38:05;;;;;;;45.33;25.07;;;;;;;-0.32;99.36;99933.13;4976380;28;20656;-71
2022/11/22 03:40:30;;;;;;;43.83;23.83;;;;;;;-0.30;99.47;99927.38;4974971;28;20210;-70
2022/11/22 03:43:00;;;;;;;39.00;20.83;;;;;;;-0.31;99.67;99927.28;4978378;28;20184;-70
2022/11/22 03:45:27;;;;;;;43.27;23.73;;;;;;;-0.29;99.90;99939.13;4976292;28;20286;-69
2022/11/22 03:47:54;;;;;;;38.50;20.23;;;;;;;-0.32;100.00;99938.97;4974687;28;20603;-70
2022/11/22 03:50:19;;;;;;;44.80;24.27;;;;;;;-0.31;100.00;99925.63;4984091;28;20716;-69
2022/11/22 03:52:45;;;;;;;46.27;24.90;;;;;;;-0.28;100.00;99917.34;4979192;28;20200;-70
2022/11/22 03:55:10;;;;;;;46.43;24.83;;;;;;;-0.26;99.76;99904.06;4973662;28;20216;-70
2022/11/22 03:57:35;;;;;;;44.07;22.47;;;;;;;-0.22;100.00;99895.03;4978385;28;20204;-70
2022/11/22 04:00:01;;;;;;;47.53;24.80;;;;;;;-0.22;100.00;99887.47;4972933;28;20176;-70
2022/11/22 04:02:26;;;;;;;42.93;23.57;;;;;;;-0.22;100.00;99884.97;4983036;28;20187;-70
2022/11/22 04:04:52;;;;;;;45.30;24.20;;;;;;;-0.21;99.78;99890.06;4980650;28;20219;-70
2022/11/22 04:07:17;;;;;;;45.77;25.10;;;;;;;-0.19;100.00;99900.19;4979453;28;20251;-71
2022/11/22 04:09:43;;;;;;;46.73;24.73;;;;;;;-0.19;100.00;99902.69;4980965;28;20188;-71
2022/11/22 04:12:08;;;;;;;49.63;24.53;;;;;;;-0.18;100.00;99904.44;4973505;28;20184;-71
2022/11/22 04:17:39;;;;;;;46.73;24.13;;;;;;;-0.14;100.00;99907.16;4975316;28;20643;-71
2022/11/22 04:23:01;;;;;;;44.37;24.90;;;;;;;-0.11;100.00;99903.91;4977711;28;20196;-70
2022/11/22 04:25:28;;;;;;;42.13;22.70;;;;;;;-0.09;100.00;99904.88;4970845;28;20648;-71
2022/11/22 04:27:55;;;;;;;45.43;24.77;;;;;;;-0.07;100.00;99903.25;4970725;28;20188;-72
2022/11/22 04:30:20;;;;;;;45.73;25.03;;;;;;;-0.04;100.00;99904.25;4970059;28;20189;-71
2022/11/22 04:32:46;;;;;;;47.17;25.00;;;;;;;-0.02;100.00;99891.75;4976050;28;20565;-72
2022/11/22 04:35:17;;;;;;;42.73;24.00;;;;;;;-0.02;100.00;99896.78;4976142;28;20576;-71
2022/11/22 04:37:49;;;;;;;44.87;23.63;;;;;;;0.01;100.00;99884.34;4971235;28;20270;-71
2022/11/22 04:40:14;;;;;;;42.93;24.77;;;;;;;0.05;100.00;99874.47;4972975;28;20243;-70
2022/11/22 04:45:24;;;;;;;46.67;24.47;;;;;;;0.06;99.94;99868.66;4976814;28;20218;-71
2022/11/22 04:47:58;;;;;;;46.87;26.23;;;;;;;0.08;99.88;99867.09;4980816;28;20188;-70
2022/11/22 04:53:09;;;;;;;44.83;24.83;;;;;;;0.11;100.00;99858.81;4982912;28;20813;-71
2022/11/22 04:55:34;;;;;;;44.97;24.73;;;;;;;0.13;100.00;99859.72;4978259;28;20306;-70
2022/11/22 04:58:01;;;;;;;50.20;26.50;;;;;;;0.15;100.00;99855.63;4988747;28;20318;-71
2022/11/22 05:00:28;;;;;;;44.57;25.10;;;;;;;0.18;100.00;99866.69;4974899;28;20195;-70
2022/11/22 05:02:54;;;;;;;43.90;25.43;;;;;;;0.19;99.85;99863.38;4982718;28;20199;-70
2022/11/22 05:05:19;;;;;;;42.73;24.83;;;;;;;0.19;100.00;99865.03;4978340;28;20212;-70
2022/11/22 05:07:44;;;;;;;44.47;25.17;;;;;;;0.23;99.96;99856.81;4978723;28;20188;-71
2022/11/22 05:10:10;;;;;;;45.87;26.23;;;;;;;0.24;99.91;99861.06;4981660;28;20199;-70
2022/11/22 05:12:36;;;;;;;43.17;24.10;;;;;;;0.23;100.00;99852.66;4979234;28;20271;-71
2022/11/22 05:15:02;;;;;;;45.40;25.83;;;;;;;0.25;100.00;99865.31;4976526;28;20660;-71
2022/11/22 05:17:28;;;;;;;44.80;25.93;;;;;;;0.25;100.00;99855.25;4978131;28;20227;-69
2022/11/22 05:19:53;;;;;;;49.03;26.90;;;;;;;0.26;100.00;99859.47;4973516;28;20188;-70
2022/11/22 05:23:53;;;;;;;48.80;26.63;;;;;;;0.29;99.59;99860.47;4975371;28;20260;-70
2022/11/22 05:25:04;;;;;;;45.90;25.90;;;;;;;0.31;100.00;99852.13;4976011;28;20308;-70
2022/11/22 05:27:30;;;;;;;45.43;25.23;;;;;;;0.28;99.47;99838.59;4978940;28;20200;-70
2022/11/22 05:29:55;;;;;;;44.53;26.40;;;;;;;0.32;99.62;99846.31;4979182;28;20299;-71
2022/11/22 05:32:20;;;;;;;47.93;26.20;;;;;;;0.33;99.33;99856.44;4976482;28;20291;-70
2022/11/22 05:34:46;;;;;;;48.67;27.03;;;;;;;0.33;100.00;99871.53;4975087;28;20660;-70
2022/11/22 05:37:11;;;;;;;45.30;24.77;;;;;;;0.33;99.96;99862.31;4977806;28;20217;-70
2022/11/22 05:39:37;;;;;;;50.50;26.17;;;;;;;0.35;98.86;99872.44;4979641;28;20180;-71
2022/11/22 05:42:04;;;;;;;43.70;26.57;;;;;;;0.37;99.38;99870.00;4977047;28;20705;-71
2022/11/22 05:44:30;;;;;;;44.70;26.53;;;;;;;0.38;98.89;99874.25;4971628;28;20176;-71
2022/11/22 05:46:55;;;;;;;51.23;28.13;;;;;;;0.37;98.80;99888.50;4976927;28;20195;-71
2022/11/22 05:49:21;;;;;;;50.47;28.37;;;;;;;0.38;99.74;99887.69;4984969;28;20183;-72
2022/11/22 05:51:46;;;;;;;51.53;27.77;;;;;;;0.40;99.04;99890.28;4977696;28;20676;-71
2022/11/22 05:54:11;;;;;;;49.17;27.57;;;;;;;0.42;98.97;99883.66;4982717;28;20188;-71
2022/11/22 05:56:37;;;;;;;47.07;26.60;;;;;;;0.41;98.93;99890.31;4982449;28;20747;-71
2022/11/22 05:59:03;;;;;;;43.13;25.10;;;;;;;0.43;99.26;99883.72;4982467;28;20191;-70
2022/11/22 06:01:28;;;;;;;47.73;27.10;;;;;;;0.43;99.05;99894.63;4980758;28;20271;-70
2022/11/22 06:03:54;;;;;;;45.70;26.77;;;;;;;0.45;99.17;99892.19;4977463;28;20191;-70
2022/11/22 06:06:20;;;;;;;48.57;27.97;;;;;;;0.45;99.51;99899.75;4976149;28;20262;-71
2022/11/22 06:08:46;;;;;;;43.47;26.13;;;;;;;0.43;98.70;99899.66;4973625;28;20250;-71
2022/11/22 06:11:14;;;;;;;47.50;26.50;;;;;;;0.46;98.50;99896.41;4974119;28;20224;-70
2022/11/22 06:13:43;;;;;;;48.43;26.77;;;;;;;0.46;99.46;99893.91;4972648;28;20564;-71
2022/11/22 06:16:09;;;;;;;45.70;25.77;;;;;;;0.50;98.62;99897.44;4973662;28;20263;-71
2022/11/22 06:18:35;;;;;;;49.60;28.33;;;;;;;0.49;98.77;99894.03;4973914;28;20207;-70
2022/11/22 06:21:06;;;;;;;48.87;27.83;;;;;;;0.47;98.48;99886.41;4974922;28;20204;-71
2022/11/22 06:23:32;;;;;;;48.83;26.97;;;;;;;0.47;99.49;99896.50;4974862;28;20188;-71
2022/11/22 06:26:02;;;;;;;42.33;25.63;;;;;;;0.47;99.04;99893.13;4976830;28;20208;-70
2022/11/22 06:28:28;;;;;;;44.40;25.93;;;;;;;0.47;98.35;99899.00;4973992;28;20188;-70
2022/11/22 06:31:00;;;;;;;48.23;27.60;;;;;;;0.48;98.60;99902.41;4979564;28;20175;-70
2022/11/22 06:33:25;;;;;;;50.83;29.13;;;;;;;0.52;98.30;99903.38;4977869;28;20196;-70
2022/11/22 06:35:51;;;;;;;48.47;27.13;;;;;;;0.55;99.29;99906.03;4974748;28;20208;-71
2022/11/22 06:38:16;;;;;;;47.57;26.80;;;;;;;0.56;99.12;99911.16;4971884;28;20231;-71
2022/11/22 06:40:42;;;;;;;47.77;27.23;;;;;;;0.54;98.84;99912.72;4972160;28;20187;-71
2022/11/22 06:43:07;;;;;;;47.47;26.37;;;;;;;0.56;99.58;99910.28;4978048;28;20677;-70
2022/11/22 06:45:32;;;;;;;44.37;25.27;;;;;;;0.57;99.09;99905.31;4980063;28;20294;-70
2022/11/22 06:47:58;;;;;;;45.33;26.33;;;;;;;0.61;99.81;99908.81;4978289;28;20971;-70
2022/11/22 06:50:23;;;;;;;51.03;28.57;;;;;;;0.62;99.08;99905.50;4981815;28;20737;-70
2022/11/22 06:52:52;;;;;;;47.60;27.83;;;;;;;0.64;99.50;99903.94;4974195;28;20312;-70
2022/11/22 06:55:17;;;;;;;50.00;28.07;;;;;;;0.67;99.50;99906.56;4980767;28;20239;-69
2022/11/22 06:57:43;;;;;;;50.87;28.43;;;;;;;0.65;99.68;99913.19;4984711;28;20293;-71
2022/11/22 07:00:09;;;;;;;45.70;26.77;;;;;;;0.65;100.00;99908.16;4977360;28;20223;-71
2022/11/22 07:02:34;;;;;;;46.17;27.63;;;;;;;0.66;100.00;99908.22;4982387;28;20215;-70
2022/11/22 07:05:00;;;;;;;50.47;27.53;;;;;;;0.66;99.99;99899.81;4975069;28;20212;-70
2022/11/22 07:07:25;;;;;;;50.80;28.53;;;;;;;0.65;100.00;99901.47;4982990;28;20717;-70
2022/11/22 07:09:51;;;;;;;48.10;28.63;;;;;;;0.69;100.00;99900.78;4976667;28;20228;-69
2022/11/22 07:12:16;;;;;;;49.10;29.43;;;;;;;0.68;100.00;99899.06;4958521;28;20219;-69
2022/11/22 07:14:41;;;;;;;53.63;28.83;;;;;;;0.69;100.00;99894.91;4980358;28;20219;-71
2022/11/22 07:17:07;;;;;;;48.40;27.20;;;;;;;0.72;100.00;99893.38;4977025;28;20596;-71
2022/11/22 07:19:32;;;;;;;50.00;28.57;;;;;;;0.70;100.00;99896.63;4966085;28;20231;-72
2022/11/22 07:21:58;;;;;;;47.90;27.93;;;;;;;0.70;100.00;99900.00;4979026;28;20314;-71
2022/11/22 07:24:23;;;;;;;50.00;27.97;;;;;;;0.71;100.00;99901.72;4981092;28;20196;-70
2022/11/22 07:26:49;;;;;;;50.23;28.30;;;;;;;0.73;100.00;99910.19;4976218;28;20219;-71
2022/11/22 07:29:14;;;;;;;50.93;28.47;;;;;;;0.72;100.00;99905.13;4982134;28;20231;-70
2022/11/22 07:31:39;;;;;;;50.93;28.57;;;;;;;0.72;100.00;99905.97;4973996;28;20208;-71
2022/11/22 07:34:05;;;;;;;48.03;27.87;;;;;;;0.74;100.00;99896.84;4976409;28;20195;-71
2022/11/22 07:36:31;;;;;;;46.50;27.60;;;;;;;0.75;100.00;99905.22;4976040;28;20212;-70
2022/11/22 07:38:56;;;;;;;45.00;26.33;;;;;;;0.73;100.00;99900.13;4980119;28;20303;-70
2022/11/22 07:41:22;;;;;;;46.23;28.57;;;;;;;0.77;100.00;99896.94;4979069;28;20272;-70
2022/11/22 07:43:47;;;;;;;49.30;28.83;;;;;;;0.79;100.00;99892.84;4971252;28;20188;-70
2022/11/22 07:46:21;;;;;;;48.13;27.83;;;;;;;0.83;100.00;99902.22;4971257;28;20204;-70
2022/11/22 07:48:48;;;;;;;50.10;27.43;;;;;;;0.80;100.00;99904.63;4978194;28;20267;-70
2022/11/22 07:51:14;;;;;;;47.50;28.77;;;;;;;0.80;100.00;99899.59;4979238;28;20208;-70
2022/11/22 07:53:39;;;;;;;51.53;29.80;;;;;;;0.82;100.00;99894.63;4971396;28;20802;-70
2022/11/22 07:56:05;;;;;;;49.20;30.10;;;;;;;0.83;100.00;99902.22;4975592;28;20215;-70
2022/11/22 07:58:32;;;;;;;59.23;32.80;;;;;;;0.87;100.00;99911.63;4957317;28;20184;-70
2022/11/22 08:00:57;;;;;;;49.43;29.07;;;;;;;0.84;100.00;99913.19;4971390;28;20247;-70
2022/11/22 08:03:23;;;;;;;47.70;28.43;;;;;;;0.79;100.00;99909.59;4974169;28;20304;-70
2022/11/22 08:05:48;;;;;;;54.67;29.23;;;;;;;0.79;100.00;99905.44;4980962;28;20215;-70
2022/11/22 08:08:14;;;;;;;51.87;28.80;;;;;;;0.81;100.00;99898.81;4977071;28;20192;-70
2022/11/22 08:10:39;;;;;;;49.43;28.20;;;;;;;0.83;100.00;99906.44;4980436;28;20200;-69
2022/11/22 08:13:05;;;;;;;52.60;28.60;;;;;;;0.82;100.00;99914.78;4973774;28;20200;-69
2022/11/22 08:15:30;;;;;;;47.47;28.27;;;;;;;0.86;100.00;99917.47;4974008;28;20721;-70
2022/11/22 08:17:57;;;;;;;45.77;26.90;;;;;;;0.86;100.00;99919.16;4975753;28;20685;-70
2022/11/22 08:20:23;;;;;;;48.63;28.33;;;;;;;0.88;100.00;99918.44;4969334;28;20315;-70
2022/11/22 08:22:49;;;;;;;49.77;29.20;;;;;;;0.85;100.00;99917.41;4974486;28;20694;-71
2022/11/22 08:25:14;;;;;;;51.27;29.53;;;;;;;0.89;100.00;99914.22;4977575;28;20215;-70
2022/11/22 08:27:41;;;;;;;49.37;29.50;;;;;;;0.92;100.00;99920.25;4971407;28;20220;-70
2022/11/22 08:30:09;;;;;;;47.73;28.37;;;;;;;0.89;100.00;99925.19;4975496;28;20226;-70
2022/11/22 08:32:34;;;;;;;48.97;28.43;;;;;;;0.91;100.00;99925.25;4970868;28;20693;-70
2022/11/22 08:35:00;;;;;;;49.77;28.20;;;;;;;0.90;100.00;99931.94;4970907;28;20240;-70
2022/11/22 08:37:25;;;;;;;45.90;27.17;;;;;;;0.91;100.00;99927.78;4971934;28;20306;-71
2022/11/22 08:39:51;;;;;;;50.13;28.80;;;;;;;0.90;100.00;99931.94;4971927;28;20224;-70
2022/11/22 08:42:17;;;;;;;63.37;40.53;;;;;;;0.91;100.00;99930.28;4977198;28;20185;-70
2022/11/22 08:44:42;;;;;;;57.70;38.20;;;;;;;0.97;100.00;99925.50;4973728;28;20207;-70
2022/11/22 08:47:07;;;;;;;49.77;29.70;;;;;;;0.98;100.00;99930.59;4971427;28;20185;-70
2022/11/22 08:49:33;;;;;;;44.97;27.57;;;;;;;1.02;100.00;99936.63;4976986;28;20200;-71
2022/11/22 08:51:58;;;;;;;46.57;27.60;;;;;;;1.02;100.00;99934.09;4978170;28;20187;-70
2022/11/22 08:54:24;;;;;;;45.97;26.60;;;;;;;1.02;100.00;99932.47;4976231;28;20561;-70
2022/11/22 08:56:49;;;;;;;44.40;26.70;;;;;;;1.07;100.00;99936.03;4977071;28;20223;-69
2022/11/22 08:59:14;;;;;;;46.77;28.10;;;;;;;1.07;100.00;99928.47;4974198;28;20267;-71
2022/11/22 09:01:40;;;;;;;43.13;26.87;;;;;;;1.09;100.00;99936.09;4972042;28;20216;-70
2022/11/22 09:04:05;;;;;;;48.30;28.00;;;;;;;1.07;99.85;99941.06;4981006;28;20188;-71
2022/11/22 09:06:31;;;;;;;48.67;28.40;;;;;;;1.12;100.00;99947.16;4972739;28;20709;-70
2022/11/22 09:08:56;;;;;;;48.27;27.50;;;;;;;1.16;100.00;99953.19;4975090;28;20184;-71
2022/11/22 09:11:21;;;;;;;44.93;27.53;;;;;;;1.30;100.00;99950.44;4975667;28;20198;-68
2022/11/22 09:13:47;;;;;;;46.17;27.57;;;;;;;1.55;100.00;99955.66;4982550;28;20184;-69
2022/11/22 09:16:15;;;;;;;45.50;26.73;;;;;;;1.55;100.00;99948.09;4982048;28;20220;-69
2022/11/22 09:18:41;;;;;;;51.13;28.90;;;;;;;1.62;99.90;99954.25;4967772;28;20246;-71
2022/11/22 09:21:10;;;;;;;50.97;30.40;;;;;;;1.47;99.45;99958.69;4968241;28;20259;-69
2022/11/22 09:23:36;;;;;;;58.10;35.43;;;;;;;1.42;100.00;99961.00;4983737;28;20287;-69
2022/11/22 09:26:07;;;;;;;50.83;32.13;;;;;;;1.46;99.92;99960.34;4980471;28;20228;-70
2022/11/22 09:28:33;;;;;;;45.27;27.87;;;;;;;1.47;99.38;99961.22;4978132;28;20192;-70
2022/11/22 09:31:07;;;;;;;49.53;31.53;;;;;;;1.43;99.32;99972.84;4979227;28;20236;-69
2022/11/22 09:33:34;;;;;;;47.93;27.57;;;;;;;1.35;100.00;99969.13;4975409;28;20192;-70
2022/11/22 09:36:01;;;;;;;44.57;27.23;;;;;;;1.42;99.58;99962.69;4974188;28;20401;-72
2022/11/22 09:38:28;;;;;;;46.27;26.20;;;;;;;1.34;99.82;99969.94;4978527;28;20287;-70
2022/11/22 09:40:53;;;;;;;46.30;28.33;;;;;;;1.35;100.00;99971.66;4977199;28;20180;-70
2022/11/22 09:43:50;;;;;;;47.93;28.30;;;;;;;1.35;100.00;99969.13;4976565;28;20668;-70
2022/11/22 09:46:52;;;;;;;48.97;27.97;;;;;;;1.43;100.00;99975.38;4982733;28;20228;-71
2022/11/22 09:49:42;;;;;;;47.57;27.77;;;;;;;1.45;100.00;99971.22;4981868;28;20197;-69
2022/11/22 09:52:16;;;;;;;45.37;26.43;;;;;;;1.44;99.95;99979.59;4981323;28;20192;-70
2022/11/22 09:54:41;;;;;;;47.00;27.17;;;;;;;1.46;100.00;99983.03;4979816;28;20231;-72
2022/11/22 09:57:16;;;;;;;47.97;26.57;;;;;;;1.47;100.00;99991.47;4987228;28;20235;-69
2022/11/22 09:59:46;;;;;;;46.77;27.10;;;;;;;1.47;100.00;99977.19;4983516;28;20191;-70
2022/11/22 10:02:46;;;;;;;42.87;26.20;;;;;;;1.74;100.00;99983.34;4976108;28;20192;-71
2022/11/22 10:05:20;;;;;;;47.07;27.73;;;;;;;1.82;100.00;99979.47;4971765;28;20227;-70
2022/11/22 10:07:53;;;;;;;45.13;26.07;;;;;;;1.74;100.00;99987.56;4969102;28;20192;-70
2022/11/22 10:10:41;;;;;;;42.40;24.40;;;;;;;1.68;100.00;99984.75;4976948;28;20184;-70
2022/11/22 10:13:18;;;;;;;42.20;25.40;;;;;;;1.66;100.00;99979.66;4984298;28;20211;-70
2022/11/22 10:15:52;;;;;;;41.50;25.77;;;;;;;1.60;100.00;99976.03;4977057;28;20211;-70
2022/11/22 10:18:36;;;;;;;43.83;26.30;;;;;;;1.66;100.00;99989.72;4983442;28;20851;-70
2022/11/22 10:21:02;;;;;;;49.70;26.60;;;;;;;1.65;100.00;99988.03;4982585;28;20222;-70
2022/11/22 10:23:28;;;;;;;49.97;28.93;;;;;;;1.66;100.00;99986.38;4980180;28;20232;-70
2022/11/22 10:25:58;;;;;;;62.93;38.27;;;;;;;1.73;100.00;99984.16;4978242;28;20204;-71
2022/11/22 10:28:35;;;;;;;94.93;58.83;;;;;;;1.73;100.00;99975.72;4978677;28;20193;-70
2022/11/22 10:31:13;;;;;;;69.23;43.73;;;;;;;1.77;100.00;99985.13;4982146;28;20323;-71
2022/11/22 10:33:50;;;;;;;64.67;43.73;;;;;;;1.81;100.00;99987.84;4972475;28;20209;-68
2022/11/22 10:36:18;;;;;;;42.33;26.43;;;;;;;1.78;100.00;99989.38;4975331;28;20263;-70
2022/11/22 10:39:01;;;;;;;43.50;27.07;;;;;;;1.81;100.00;99986.97;4980848;28;20600;-70
2022/11/22 10:41:53;;;;;;;43.43;25.80;;;;;;;1.86;100.00;99995.59;4975398;28;20667;-70
2022/11/22 10:44:46;;;;;;;43.17;26.13;;;;;;;1.85;100.00;99974.56;4973688;28;20633;-70
2022/11/22 10:47:41;;;;;;;43.30;25.63;;;;;;;1.88;100.00;99972.13;4979014;28;20200;-70
2022/11/22 10:50:35;;;;;;;40.50;24.33;;;;;;;1.93;100.00;99975.69;4980995;28;20222;-69
2022/11/22 10:53:17;;;;;;;45.50;26.53;;;;;;;1.96;100.00;99980.88;4980510;28;20199;-69
2022/11/22 10:56:03;;;;;;;44.10;25.73;;;;;;;1.95;100.00;99976.63;4979469;28;20212;-71
2022/11/22 10:58:37;;;;;;;43.83;25.70;;;;;;;1.97;100.00;99977.53;4975444;28;20187;-71
2022/11/22 11:01:52;;;;;;;43.63;25.97;;;;;;;2.04;100.00;99982.03;4981363;28;20195;-71
2022/11/22 11:04:20;;;;;;;43.67;25.87;;;;;;;2.01;100.00;99981.91;4953021;28;20686;-71
2022/11/22 11:06:56;;;;;;;45.87;26.57;;;;;;;2.04;100.00;99986.22;4970584;28;20777;-71
2022/11/22 11:09:24;;;;;;;41.53;27.47;;;;;;;2.04;100.00;99981.16;4972408;28;20275;-71
2022/11/22 11:11:51;;;;;;;47.63;27.57;;;;;;;2.07;100.00;99983.81;4976060;28;20279;-71
2022/11/22 11:14:31;;;;;;;42.53;25.77;;;;;;;2.11;100.00;99978.09;4976058;28;20646;-71
2022/11/22 11:16:58;;;;;;;39.23;23.97;;;;;;;2.12;100.00;99969.72;4971058;28;20306;-71
2022/11/22 11:19:28;;;;;;;43.40;25.60;;;;;;;2.16;100.00;99974.06;4972145;28;20316;-71
2022/11/22 11:21:59;;;;;;;46.30;26.40;;;;;;;2.21;100.00;99975.94;4976928;28;20563;-72
2022/11/22 11:24:28;;;;;;;44.03;25.33;;;;;;;2.26;100.00;99973.63;4975365;28;20650;-71
2022/11/22 11:26:56;;;;;;;39.33;25.17;;;;;;;2.30;100.00;99976.28;4982945;28;20223;-71
2022/11/22 11:29:33;;;;;;;38.03;23.67;;;;;;;2.32;100.00;99982.28;4982085;28;20188;-71
2022/11/22 11:32:14;;;;;;;43.80;26.63;;;;;;;2.29;100.00;99989.72;4976018;28;20281;-71
2022/11/22 11:34:46;;;;;;;39.07;24.10;;;;;;;2.25;100.00;99989.56;4956659;28;20297;-70